createdAt,value
2018-07-06T00:00:07.097Z,0.00
2018-07-06T00:01:07.057Z,0.00
2018-07-06T00:02:07.015Z,0.00
2018-07-06T00:03:06.983Z,0.00
2018-07-06T00:04:06.942Z,0.00
2018-07-06T00:05:06.891Z,0.00
2018-07-06T00:06:06.852Z,0.00
2018-07-06T00:07:06.810Z,0.00
2018-07-06T00:08:06.771Z,0.00
2018-07-06T00:09:06.730Z,0.00
2018-07-06T00:10:06.690Z,0.00
2018-07-06T00:11:06.742Z,0.00
2018-07-06T00:12:06.611Z,0.00
2018-07-06T00:13:06.566Z,0.00
2018-07-06T00:14:06.527Z,0.00
2018-07-06T00:15:06.487Z,0.00
2018-07-06T00:16:06.448Z,0.00
2018-07-06T00:17:06.406Z,0.00
2018-07-06T00:18:06.366Z,0.00
2018-07-06T00:19:06.325Z,0.00
2018-07-06T00:20:06.283Z,0.00
2018-07-06T00:21:06.242Z,0.00
2018-07-06T00:22:06.203Z,0.00
2018-07-06T00:23:06.165Z,0.00
2018-07-06T00:24:06.133Z,0.00
2018-07-06T00:25:06.081Z,0.00
2018-07-06T00:26:06.042Z,0.00
2018-07-06T00:27:06.023Z,0.00
2018-07-06T00:28:05.959Z,0.00
2018-07-06T00:29:05.917Z,0.00
2018-07-06T00:30:05.881Z,0.00
2018-07-06T00:31:05.836Z,0.00
2018-07-06T00:32:05.795Z,0.00
2018-07-06T00:33:05.757Z,0.00
2018-07-06T00:34:05.718Z,0.00
2018-07-06T00:35:05.675Z,0.00
2018-07-06T00:36:05.634Z,0.00
2018-07-06T00:37:05.593Z,0.00
2018-07-06T00:38:05.551Z,0.00
2018-07-06T00:39:05.511Z,0.00
2018-07-06T00:40:05.470Z,0.00
2018-07-06T00:41:05.431Z,0.00
2018-07-06T00:42:05.388Z,0.00
2018-07-06T00:43:05.348Z,0.00
2018-07-06T00:44:05.306Z,0.00
2018-07-06T00:45:05.271Z,0.00
2018-07-06T00:46:05.227Z,0.00
2018-07-06T00:47:05.184Z,0.00
2018-07-06T00:48:05.155Z,0.00
2018-07-06T00:49:05.104Z,0.00
2018-07-06T00:50:05.065Z,0.00
2018-07-06T00:51:05.022Z,0.00
2018-07-06T00:52:04.987Z,0.00
2018-07-06T00:53:04.949Z,0.00
2018-07-06T00:54:04.904Z,0.00
2018-07-06T00:55:04.857Z,0.00
2018-07-06T00:56:04.818Z,0.00
2018-07-06T00:57:04.801Z,0.00
2018-07-06T00:58:04.738Z,0.00
2018-07-06T00:59:04.704Z,0.00
2018-07-06T01:00:04.662Z,0.00
2018-07-06T01:01:04.620Z,0.00
2018-07-06T01:02:04.572Z,0.00
2018-07-06T01:03:04.532Z,0.00
2018-07-06T01:04:04.497Z,0.00
2018-07-06T01:05:04.455Z,0.00
2018-07-06T01:06:04.412Z,0.00
2018-07-06T01:07:04.371Z,0.00
2018-07-06T01:08:04.328Z,0.00
2018-07-06T01:09:04.288Z,0.00
2018-07-06T01:10:04.302Z,0.00
2018-07-06T01:11:04.208Z,0.00
2018-07-06T01:12:04.164Z,0.00
2018-07-06T01:13:04.122Z,0.00
2018-07-06T01:14:04.085Z,0.00
2018-07-06T01:15:04.048Z,0.00
2018-07-06T01:16:04.011Z,0.00
2018-07-06T01:17:03.966Z,0.00
2018-07-06T01:18:03.925Z,0.00
2018-07-06T01:19:03.884Z,0.00
2018-07-06T01:20:03.837Z,0.00
2018-07-06T01:21:03.800Z,0.00
2018-07-06T01:22:03.756Z,0.00
2018-07-06T01:23:03.716Z,0.00
2018-07-06T01:24:03.677Z,0.00
2018-07-06T01:25:03.639Z,0.00
2018-07-06T01:26:03.594Z,0.00
2018-07-06T01:27:03.553Z,0.00
2018-07-06T01:28:03.511Z,0.00
2018-07-06T01:29:03.473Z,0.00
2018-07-06T01:30:03.432Z,0.00
2018-07-06T01:31:03.391Z,0.00
2018-07-06T01:32:03.346Z,0.00
2018-07-06T01:33:03.308Z,0.00
2018-07-06T01:34:03.262Z,0.00
2018-07-06T01:35:03.224Z,0.00
2018-07-06T01:36:03.180Z,0.00
2018-07-06T01:37:03.143Z,0.00
2018-07-06T01:38:03.099Z,0.00
2018-07-06T01:39:03.056Z,0.00
2018-07-06T01:40:03.023Z,0.00
2018-07-06T01:41:02.977Z,0.00
2018-07-06T01:42:02.937Z,0.00
2018-07-06T01:43:02.895Z,0.00
2018-07-06T01:44:02.857Z,0.00
2018-07-06T01:45:02.813Z,0.00
2018-07-06T01:46:02.772Z,0.00
2018-07-06T01:47:02.730Z,0.00
2018-07-06T01:48:02.688Z,0.00
2018-07-06T01:49:02.647Z,0.00
2018-07-06T01:50:02.606Z,0.00
2018-07-06T01:51:02.567Z,0.00
2018-07-06T01:52:02.524Z,0.00
2018-07-06T01:53:02.487Z,0.00
2018-07-06T01:54:02.444Z,0.00
2018-07-06T01:55:02.402Z,0.00
2018-07-06T01:56:02.362Z,0.00
2018-07-06T01:57:02.319Z,0.00
2018-07-06T01:58:02.278Z,0.00
2018-07-06T01:59:02.265Z,0.00
2018-07-06T02:00:02.200Z,0.00
2018-07-06T02:01:02.156Z,0.00
2018-07-06T02:02:02.119Z,0.00
2018-07-06T02:03:02.077Z,0.00
2018-07-06T02:04:02.036Z,0.00
2018-07-06T02:05:01.999Z,0.00
2018-07-06T02:06:01.950Z,0.00
2018-07-06T02:07:01.909Z,0.00
2018-07-06T02:08:01.865Z,0.00
2018-07-06T02:09:01.836Z,0.00
2018-07-06T02:10:01.791Z,0.00
2018-07-06T02:11:01.744Z,0.00
2018-07-06T02:12:01.698Z,0.00
2018-07-06T02:13:01.659Z,0.00
2018-07-06T02:14:01.618Z,0.00
2018-07-06T02:15:01.579Z,0.00
2018-07-06T02:16:01.544Z,0.00
2018-07-06T02:17:01.492Z,0.00
2018-07-06T02:18:01.455Z,0.00
2018-07-06T02:19:01.414Z,0.00
2018-07-06T02:20:01.369Z,0.00
2018-07-06T02:21:01.331Z,0.00
2018-07-06T02:22:01.291Z,0.00
2018-07-06T02:23:01.243Z,0.00
2018-07-06T02:24:01.204Z,0.00
2018-07-06T02:25:01.170Z,0.00
2018-07-06T02:26:01.126Z,0.00
2018-07-06T02:27:01.079Z,0.00
2018-07-06T02:28:01.041Z,0.00
2018-07-06T02:29:00.997Z,0.00
2018-07-06T02:30:00.959Z,0.00
2018-07-06T02:31:00.916Z,0.00
2018-07-06T02:32:00.878Z,0.00
2018-07-06T02:33:00.834Z,0.00
2018-07-06T02:34:00.791Z,0.00
2018-07-06T02:35:00.758Z,0.00
2018-07-06T02:36:00.708Z,0.00
2018-07-06T02:37:00.670Z,0.00
2018-07-06T02:38:00.626Z,0.00
2018-07-06T02:39:00.585Z,0.00
2018-07-06T02:40:00.547Z,0.00
2018-07-06T02:41:00.505Z,0.00
2018-07-06T02:42:00.472Z,0.00
2018-07-06T02:43:00.416Z,0.00
2018-07-06T02:44:00.376Z,0.00
2018-07-06T02:45:00.338Z,0.00
2018-07-06T02:46:00.294Z,0.00
2018-07-06T02:47:00.251Z,0.00
2018-07-06T02:48:00.209Z,0.00
2018-07-06T02:49:00.170Z,0.00
2018-07-06T02:50:00.130Z,4.00
2018-07-06T02:51:00.084Z,4.00
2018-07-06T02:52:00.048Z,0.00
2018-07-06T02:53:00.010Z,4.00
2018-07-06T02:53:59.963Z,4.00
2018-07-06T02:54:59.939Z,4.00
2018-07-06T02:55:59.883Z,4.00
2018-07-06T02:56:59.838Z,4.00
2018-07-06T02:57:59.800Z,4.00
2018-07-06T02:58:59.753Z,4.00
2018-07-06T02:59:59.716Z,8.00
2018-07-06T03:00:59.672Z,8.00
2018-07-06T03:01:59.638Z,8.00
2018-07-06T03:02:59.590Z,8.00
2018-07-06T03:03:59.547Z,8.00
2018-07-06T03:04:59.515Z,8.00
2018-07-06T03:05:59.475Z,16.00
2018-07-06T03:06:59.421Z,16.00
2018-07-06T03:07:59.385Z,16.00
2018-07-06T03:08:59.338Z,20.00
2018-07-06T03:09:59.299Z,20.00
2018-07-06T03:10:59.256Z,24.00
2018-07-06T03:11:59.218Z,24.00
2018-07-06T03:12:59.170Z,28.00
2018-07-06T03:13:59.130Z,32.00
2018-07-06T03:14:59.086Z,32.00
2018-07-06T03:15:59.050Z,40.00
2018-07-06T03:16:59.005Z,40.00
2018-07-06T03:17:58.965Z,44.00
2018-07-06T03:18:58.923Z,52.00
2018-07-06T03:19:58.877Z,52.00
2018-07-06T03:20:58.836Z,56.00
2018-07-06T03:21:58.796Z,64.00
2018-07-06T03:22:58.754Z,68.00
2018-07-06T03:23:58.717Z,72.00
2018-07-06T03:24:58.670Z,76.00
2018-07-06T03:25:58.628Z,84.00
2018-07-06T03:26:58.585Z,88.00
2018-07-06T03:27:58.570Z,100.00
2018-07-06T03:28:58.505Z,104.00
2018-07-06T03:29:58.463Z,112.00
2018-07-06T03:30:58.418Z,116.00
2018-07-06T03:31:58.376Z,124.00
2018-07-06T03:32:58.337Z,128.00
2018-07-06T03:33:58.323Z,140.00
2018-07-06T03:34:58.259Z,148.00
2018-07-06T03:35:58.213Z,156.00
2018-07-06T03:36:58.177Z,160.00
2018-07-06T03:37:58.126Z,172.00
2018-07-06T03:38:58.086Z,176.00
2018-07-06T03:39:58.044Z,184.00
2018-07-06T03:40:57.999Z,192.00
2018-07-06T03:41:57.960Z,204.00
2018-07-06T03:42:57.918Z,208.00
2018-07-06T03:43:57.874Z,220.00
2018-07-06T03:44:57.835Z,232.00
2018-07-06T03:45:57.791Z,240.00
2018-07-06T03:46:57.750Z,248.00
2018-07-06T03:47:57.730Z,260.00
2018-07-06T03:48:57.666Z,268.00
2018-07-06T03:49:57.624Z,280.00
2018-07-06T03:50:57.585Z,292.00
2018-07-06T03:51:57.544Z,300.00
2018-07-06T03:52:57.498Z,312.00
2018-07-06T03:53:57.456Z,324.00
2018-07-06T03:54:57.456Z,336.00
2018-07-06T03:55:57.373Z,344.00
2018-07-06T03:56:57.340Z,356.00
2018-07-06T03:57:57.289Z,368.00
2018-07-06T03:58:57.247Z,376.00
2018-07-06T03:59:57.205Z,388.00
2018-07-06T04:00:57.171Z,388.00
2018-07-06T04:01:57.125Z,372.00
2018-07-06T04:02:57.080Z,360.00
2018-07-06T04:03:57.038Z,352.00
2018-07-06T04:04:56.998Z,352.00
2018-07-06T04:05:56.956Z,336.00
2018-07-06T04:06:56.916Z,316.00
2018-07-06T04:07:56.872Z,308.00
2018-07-06T04:08:56.835Z,300.00
2018-07-06T04:09:56.791Z,296.00
2018-07-06T04:10:56.744Z,300.00
2018-07-06T04:11:56.707Z,304.00
2018-07-06T04:12:56.661Z,316.00
2018-07-06T04:13:56.620Z,320.00
2018-07-06T04:14:56.584Z,324.00
2018-07-06T04:15:56.607Z,324.00
2018-07-06T04:16:56.495Z,312.00
2018-07-06T04:17:56.452Z,284.00
2018-07-06T04:18:56.410Z,280.00
2018-07-06T04:19:56.371Z,288.00
2018-07-06T04:20:56.329Z,296.00
2018-07-06T04:21:56.286Z,296.00
2018-07-06T04:22:56.246Z,260.00
2018-07-06T04:23:56.204Z,252.00
2018-07-06T04:24:56.165Z,280.00
2018-07-06T04:25:56.132Z,304.00
2018-07-06T04:26:56.088Z,312.00
2018-07-06T04:27:56.037Z,308.00
2018-07-06T04:28:55.997Z,312.00
2018-07-06T04:29:55.952Z,320.00
2018-07-06T04:30:55.910Z,336.00
2018-07-06T04:31:55.875Z,336.00
2018-07-06T04:32:55.828Z,348.00
2018-07-06T04:33:55.786Z,328.00
2018-07-06T04:34:40.033Z,316.00
2018-07-06T04:35:39.999Z,300.00
2018-07-06T04:36:39.952Z,288.00
2018-07-06T04:37:39.911Z,268.00
2018-07-06T04:38:39.889Z,284.00
2018-07-06T04:39:39.832Z,312.00
2018-07-06T04:40:39.789Z,308.00
2018-07-06T04:41:39.740Z,292.00
2018-07-06T04:42:39.699Z,280.00
2018-07-06T04:43:39.658Z,288.00
2018-07-06T04:44:39.615Z,276.00
2018-07-06T04:45:39.575Z,124.00
2018-07-06T04:46:39.537Z,304.00
2018-07-06T04:47:39.491Z,300.00
2018-07-06T04:48:39.451Z,316.00
2018-07-06T04:49:39.408Z,348.00
2018-07-06T04:50:39.370Z,352.00
2018-07-06T04:51:39.325Z,336.00
2018-07-06T04:52:39.283Z,328.00
2018-07-06T04:53:39.244Z,328.00
2018-07-06T04:54:39.200Z,372.00
2018-07-06T04:55:39.157Z,372.00
2018-07-06T04:56:39.118Z,380.00
2018-07-06T04:57:39.081Z,412.00
2018-07-06T04:58:39.037Z,468.00
2018-07-06T04:59:38.992Z,500.00
2018-07-06T05:00:38.953Z,488.00
2018-07-06T05:01:38.911Z,536.00
2018-07-06T05:02:38.871Z,552.00
2018-07-06T05:03:38.827Z,540.00
2018-07-06T05:04:38.789Z,552.00
2018-07-06T05:05:38.745Z,588.00
2018-07-06T05:06:38.706Z,652.00
2018-07-06T05:07:38.692Z,660.00
2018-07-06T05:08:38.620Z,660.00
2018-07-06T05:09:38.577Z,728.00
2018-07-06T05:10:38.536Z,796.00
2018-07-06T05:11:38.497Z,840.00
2018-07-06T05:12:38.457Z,832.00
2018-07-06T05:13:38.415Z,856.00
2018-07-06T05:14:38.372Z,856.00
2018-07-06T05:15:38.331Z,844.00
2018-07-06T05:16:38.310Z,828.00
2018-07-06T05:17:38.250Z,864.00
2018-07-06T05:18:38.205Z,924.00
2018-07-06T05:19:38.166Z,944.00
2018-07-06T05:20:38.125Z,960.00
2018-07-06T05:21:38.084Z,976.00
2018-07-06T05:22:38.077Z,952.00
2018-07-06T05:23:38.010Z,928.00
2018-07-06T05:24:37.960Z,1016.00
2018-07-06T05:25:37.922Z,1028.00
2018-07-06T05:26:37.878Z,1004.00
2018-07-06T05:27:37.836Z,1028.00
2018-07-06T05:28:37.798Z,1104.00
2018-07-06T05:29:37.758Z,1020.00
2018-07-06T05:30:37.715Z,960.00
2018-07-06T05:31:37.674Z,1024.00
2018-07-06T05:32:37.629Z,1016.00
2018-07-06T05:33:37.591Z,984.00
2018-07-06T05:34:37.556Z,964.00
2018-07-06T05:35:37.509Z,980.00
2018-07-06T05:36:37.471Z,944.00
2018-07-06T05:37:37.426Z,884.00
2018-07-06T05:38:37.386Z,872.00
2018-07-06T05:39:37.345Z,904.00
2018-07-06T05:40:37.308Z,944.00
2018-07-06T05:41:37.261Z,992.00
2018-07-06T05:42:37.220Z,1032.00
2018-07-06T05:43:37.180Z,1012.00
2018-07-06T05:44:37.138Z,928.00
2018-07-06T05:45:37.097Z,872.00
2018-07-06T05:46:37.059Z,884.00
2018-07-06T05:47:37.016Z,896.00
2018-07-06T05:48:36.973Z,880.00
2018-07-06T05:49:36.935Z,912.00
2018-07-06T05:50:36.892Z,908.00
2018-07-06T05:51:36.853Z,868.00
2018-07-06T05:52:36.816Z,844.00
2018-07-06T05:53:36.769Z,824.00
2018-07-06T05:54:36.734Z,832.00
2018-07-06T05:55:36.689Z,852.00
2018-07-06T05:56:36.647Z,872.00
2018-07-06T05:57:36.609Z,872.00
2018-07-06T05:58:36.571Z,816.00
2018-07-06T05:59:36.526Z,860.00
2018-07-06T06:00:36.487Z,876.00
2018-07-06T06:01:36.444Z,908.00
2018-07-06T06:02:36.403Z,944.00
2018-07-06T06:03:36.362Z,960.00
2018-07-06T06:04:36.367Z,1100.00
2018-07-06T06:05:36.281Z,1108.00
2018-07-06T06:06:36.241Z,1032.00
2018-07-06T06:07:36.200Z,1068.00
2018-07-06T06:08:36.156Z,1132.00
2018-07-06T06:09:36.120Z,1172.00
2018-07-06T06:10:36.082Z,1192.00
2018-07-06T06:11:36.036Z,1180.00
2018-07-06T06:12:35.995Z,1172.00
2018-07-06T06:13:35.954Z,1112.00
2018-07-06T06:14:35.914Z,1052.00
2018-07-06T06:15:35.873Z,1032.00
2018-07-06T06:16:35.831Z,1028.00
2018-07-06T06:17:35.791Z,1020.00
2018-07-06T06:18:35.793Z,1088.00
2018-07-06T06:19:35.709Z,1184.00
2018-07-06T06:20:35.672Z,1108.00
2018-07-06T06:21:35.628Z,1104.00
2018-07-06T06:22:35.586Z,1144.00
2018-07-06T06:23:35.548Z,1252.00
2018-07-06T06:24:35.506Z,1332.00
2018-07-06T06:25:35.466Z,1404.00
2018-07-06T06:26:35.424Z,1516.00
2018-07-06T06:27:35.385Z,1492.00
2018-07-06T06:28:35.347Z,1404.00
2018-07-06T06:29:35.302Z,1316.00
2018-07-06T06:30:35.262Z,1212.00
2018-07-06T06:31:35.222Z,1304.00
2018-07-06T06:32:35.182Z,1416.00
2018-07-06T06:33:35.255Z,1504.00
2018-07-06T06:34:35.100Z,1676.00
2018-07-06T06:35:35.060Z,1788.00
2018-07-06T06:36:35.019Z,1788.00
2018-07-06T06:37:34.978Z,1832.00
2018-07-06T06:38:34.935Z,1920.00
2018-07-06T06:39:34.902Z,1932.00
2018-07-06T06:40:34.856Z,1928.00
2018-07-06T06:41:34.817Z,1960.00
2018-07-06T06:42:34.774Z,1884.00
2018-07-06T06:43:34.736Z,1880.00
2018-07-06T06:44:34.691Z,1936.00
2018-07-06T06:45:34.655Z,2116.00
2018-07-06T06:46:34.658Z,2236.00
2018-07-06T06:47:34.571Z,2272.00
2018-07-06T06:48:34.531Z,2264.00
2018-07-06T06:49:34.491Z,2280.00
2018-07-06T06:50:34.449Z,2184.00
2018-07-06T06:51:34.412Z,2144.00
2018-07-06T06:52:34.367Z,2092.00
2018-07-06T06:53:34.327Z,2068.00
2018-07-06T06:54:34.286Z,2004.00
2018-07-06T06:55:34.249Z,2004.00
2018-07-06T06:56:34.204Z,2000.00
2018-07-06T06:57:34.165Z,2036.00
2018-07-06T06:58:34.126Z,1964.00
2018-07-06T06:59:34.087Z,2100.00
2018-07-06T07:00:34.043Z,2040.00
2018-07-06T07:01:34.005Z,1944.00
2018-07-06T07:02:33.962Z,2076.00
2018-07-06T07:03:33.924Z,2300.00
2018-07-06T07:04:33.883Z,2328.00
2018-07-06T07:05:33.844Z,2300.00
2018-07-06T07:06:33.803Z,2336.00
2018-07-06T07:07:33.855Z,2332.00
2018-07-06T07:08:33.723Z,2200.00
2018-07-06T07:09:33.686Z,2024.00
2018-07-06T07:10:33.642Z,1804.00
2018-07-06T07:11:33.600Z,1640.00
2018-07-06T07:12:33.559Z,1884.00
2018-07-06T07:13:33.521Z,2168.00
2018-07-06T07:14:33.480Z,2260.00
2018-07-06T07:15:33.443Z,2564.00
2018-07-06T07:16:33.400Z,2456.00
2018-07-06T07:17:33.359Z,2188.00
2018-07-06T07:18:33.318Z,1968.00
2018-07-06T07:19:33.282Z,1832.00
2018-07-06T07:20:33.239Z,1776.00
2018-07-06T07:21:33.198Z,1880.00
2018-07-06T07:22:33.159Z,2032.00
2018-07-06T07:23:33.121Z,1896.00
2018-07-06T07:24:33.078Z,1716.00
2018-07-06T07:25:33.041Z,1680.00
2018-07-06T07:26:33.149Z,1720.00
2018-07-06T07:27:32.961Z,1776.00
2018-07-06T07:28:32.920Z,1768.00
2018-07-06T07:29:32.879Z,1748.00
2018-07-06T07:30:32.837Z,1764.00
2018-07-06T07:31:32.800Z,1708.00
2018-07-06T07:32:32.759Z,1652.00
2018-07-06T07:33:32.723Z,1636.00
2018-07-06T07:34:32.677Z,1784.00
2018-07-06T07:35:32.643Z,1616.00
2018-07-06T07:36:32.597Z,1604.00
2018-07-06T07:37:32.558Z,1656.00
2018-07-06T07:38:32.521Z,1672.00
2018-07-06T07:39:32.477Z,1776.00
2018-07-06T07:40:32.440Z,1864.00
2018-07-06T07:41:32.400Z,2004.00
2018-07-06T07:42:32.359Z,2176.00
2018-07-06T07:43:32.321Z,2336.00
2018-07-06T07:44:32.282Z,2400.00
2018-07-06T07:45:32.238Z,2512.00
2018-07-06T07:46:32.322Z,2540.00
2018-07-06T07:47:32.159Z,2652.00
2018-07-06T07:48:32.126Z,2536.00
2018-07-06T07:49:32.078Z,2528.00
2018-07-06T07:50:32.039Z,2664.00
2018-07-06T07:51:32.000Z,2596.00
2018-07-06T07:52:31.961Z,2404.00
2018-07-06T07:53:31.919Z,2284.00
2018-07-06T07:54:31.897Z,2348.00
2018-07-06T07:55:31.847Z,2444.00
2018-07-06T07:56:31.798Z,2544.00
2018-07-06T07:57:31.761Z,2520.00
2018-07-06T07:58:31.721Z,2684.00
2018-07-06T07:59:31.682Z,2912.00
2018-07-06T08:00:31.708Z,3124.00
2018-07-06T08:01:31.627Z,3196.00
2018-07-06T08:02:31.561Z,3096.00
2018-07-06T08:03:31.520Z,3036.00
2018-07-06T08:04:31.483Z,3032.00
2018-07-06T08:05:31.440Z,2960.00
2018-07-06T08:06:31.414Z,3032.00
2018-07-06T08:07:31.363Z,3060.00
2018-07-06T08:08:31.321Z,3100.00
2018-07-06T08:09:31.281Z,2928.00
2018-07-06T08:10:31.242Z,3000.00
2018-07-06T08:11:35.445Z,3116.00
2018-07-06T08:12:31.171Z,3352.00
2018-07-06T08:13:31.125Z,3424.00
2018-07-06T08:14:31.149Z,3428.00
2018-07-06T08:15:31.048Z,3276.00
2018-07-06T08:16:31.005Z,3212.00
2018-07-06T08:17:30.964Z,3256.00
2018-07-06T08:18:30.938Z,3124.00
2018-07-06T08:19:30.889Z,3296.00
2018-07-06T08:20:30.848Z,3316.00
2018-07-06T08:21:30.864Z,3316.00
2018-07-06T08:22:30.768Z,3104.00
2018-07-06T08:23:30.736Z,3080.00
2018-07-06T08:24:30.689Z,3300.00
2018-07-06T08:25:30.685Z,3380.00
2018-07-06T08:26:30.615Z,3464.00
2018-07-06T08:27:33.181Z,3692.00
2018-07-06T08:28:30.533Z,3764.00
2018-07-06T08:29:30.496Z,3708.00
2018-07-06T08:30:30.460Z,3616.00
2018-07-06T08:31:30.436Z,3668.00
2018-07-06T08:32:30.380Z,4160.00
2018-07-06T08:33:30.344Z,4316.00
2018-07-06T08:34:30.301Z,3968.00
2018-07-06T08:35:30.258Z,3676.00
2018-07-06T08:36:30.260Z,3704.00
2018-07-06T08:37:30.180Z,3716.00
2018-07-06T08:38:30.141Z,3704.00
2018-07-06T08:39:30.157Z,3744.00
2018-07-06T08:40:30.063Z,3788.00
2018-07-06T08:41:30.025Z,4316.00
2018-07-06T08:42:29.985Z,3948.00
2018-07-06T08:43:29.952Z,3620.00
2018-07-06T08:44:29.907Z,3364.00
2018-07-06T08:45:29.871Z,3232.00
2018-07-06T08:46:29.836Z,3320.00
2018-07-06T08:47:29.793Z,3416.00
2018-07-06T08:48:29.754Z,3384.00
2018-07-06T08:49:29.715Z,3792.00
2018-07-06T08:50:29.790Z,3740.00
2018-07-06T08:51:29.642Z,3876.00
2018-07-06T08:52:29.600Z,4096.00
2018-07-06T08:53:29.563Z,4244.00
2018-07-06T08:54:29.528Z,4548.00
2018-07-06T08:55:29.488Z,4492.00
2018-07-06T08:56:29.450Z,3740.00
2018-07-06T08:57:29.409Z,3812.00
2018-07-06T08:58:29.469Z,4640.00
2018-07-06T08:59:29.337Z,4672.00
2018-07-06T09:00:29.299Z,4096.00
2018-07-06T09:01:29.259Z,2416.00
2018-07-06T09:02:29.222Z,2192.00
2018-07-06T09:03:29.187Z,3252.00
2018-07-06T09:04:29.256Z,2588.00
2018-07-06T09:05:29.103Z,3652.00
2018-07-06T09:06:29.071Z,3484.00
2018-07-06T09:07:29.068Z,2964.00
2018-07-06T09:08:28.989Z,3332.00
2018-07-06T09:09:29.062Z,3036.00
2018-07-06T09:10:28.915Z,2748.00
2018-07-06T09:11:28.877Z,2096.00
2018-07-06T09:12:28.838Z,2080.00
2018-07-06T09:13:28.802Z,1940.00
2018-07-06T09:14:28.766Z,2416.00
2018-07-06T09:15:28.727Z,3000.00
2018-07-06T09:16:28.687Z,3132.00
2018-07-06T09:17:28.653Z,1864.00
2018-07-06T09:18:28.614Z,1860.00
2018-07-06T09:19:28.632Z,1668.00
2018-07-06T09:20:28.537Z,1644.00
2018-07-06T09:21:28.514Z,3064.00
2018-07-06T09:22:28.463Z,2472.00
2018-07-06T09:23:28.428Z,2828.00
2018-07-06T09:24:28.387Z,3036.00
2018-07-06T09:25:28.501Z,3064.00
2018-07-06T09:26:28.363Z,3068.00
2018-07-06T09:27:28.282Z,3056.00
2018-07-06T09:28:33.485Z,3072.00
2018-07-06T09:29:28.200Z,3196.00
2018-07-06T09:30:28.162Z,3304.00
2018-07-06T09:31:28.126Z,3192.00
2018-07-06T09:32:28.084Z,3216.00
2018-07-06T09:33:28.049Z,3180.00
2018-07-06T09:34:28.011Z,3332.00
2018-07-06T09:35:27.973Z,3608.00
2018-07-06T09:36:27.937Z,3692.00
2018-07-06T09:37:27.900Z,3556.00
2018-07-06T09:38:27.862Z,3452.00
2018-07-06T09:39:27.823Z,3476.00
2018-07-06T09:40:27.787Z,3652.00
2018-07-06T09:41:27.751Z,3860.00
2018-07-06T09:42:27.714Z,3892.00
2018-07-06T09:43:27.732Z,3952.00
2018-07-06T09:44:27.639Z,4124.00
2018-07-06T09:45:27.607Z,4180.00
2018-07-06T09:46:27.565Z,3656.00
2018-07-06T09:47:27.533Z,4072.00
2018-07-06T09:48:27.491Z,3080.00
2018-07-06T09:49:27.453Z,4048.00
2018-07-06T09:50:27.416Z,4040.00
2018-07-06T09:51:27.379Z,4000.00
2018-07-06T09:52:27.340Z,4128.00
2018-07-06T09:53:27.302Z,3964.00
2018-07-06T09:54:27.267Z,2344.00
2018-07-06T09:55:27.228Z,2584.00
2018-07-06T09:56:27.197Z,3144.00
2018-07-06T09:57:27.156Z,4012.00
2018-07-06T09:58:27.121Z,4144.00
2018-07-06T09:59:27.081Z,4312.00
2018-07-06T10:00:27.046Z,4364.00
2018-07-06T10:01:27.009Z,4352.00
2018-07-06T10:02:26.975Z,4436.00
2018-07-06T10:03:26.936Z,4388.00
2018-07-06T10:04:26.954Z,4360.00
2018-07-06T10:05:26.862Z,4240.00
2018-07-06T10:06:26.830Z,4184.00
2018-07-06T10:07:26.789Z,4240.00
2018-07-06T10:08:26.754Z,4248.00
2018-07-06T10:09:26.716Z,4364.00
2018-07-06T10:10:26.681Z,2996.00
2018-07-06T10:11:26.647Z,5008.00
2018-07-06T10:12:26.639Z,5192.00
2018-07-06T10:13:26.573Z,4180.00
2018-07-06T10:14:26.535Z,5064.00
2018-07-06T10:15:26.498Z,5148.00
2018-07-06T10:16:26.460Z,4872.00
2018-07-06T10:17:26.426Z,4920.00
2018-07-06T10:18:26.389Z,4868.00
2018-07-06T10:19:26.373Z,4856.00
2018-07-06T10:20:26.316Z,4828.00
2018-07-06T10:21:26.283Z,4824.00
2018-07-06T10:22:26.244Z,4868.00
2018-07-06T10:23:26.210Z,5136.00
2018-07-06T10:24:26.172Z,4368.00
2018-07-06T10:25:26.135Z,3512.00
2018-07-06T10:26:26.105Z,4484.00
2018-07-06T10:27:26.119Z,4384.00
2018-07-06T10:28:26.029Z,4316.00
2018-07-06T10:29:25.993Z,4304.00
2018-07-06T10:30:25.960Z,4520.00
2018-07-06T10:31:25.924Z,4632.00
2018-07-06T10:32:25.888Z,4472.00
2018-07-06T10:33:25.876Z,4448.00
2018-07-06T10:34:25.838Z,4944.00
2018-07-06T10:35:25.779Z,4596.00
2018-07-06T10:36:25.742Z,3092.00
2018-07-06T10:37:25.706Z,4464.00
2018-07-06T10:38:25.701Z,4672.00
2018-07-06T10:39:25.649Z,4900.00
2018-07-06T10:40:25.601Z,5028.00
2018-07-06T10:41:25.565Z,4908.00
2018-07-06T10:42:25.539Z,3308.00
2018-07-06T10:43:25.499Z,3252.00
2018-07-06T10:44:25.474Z,2960.00
2018-07-06T10:45:25.441Z,4160.00
2018-07-06T10:46:25.387Z,4820.00
2018-07-06T10:47:25.357Z,3376.00
2018-07-06T10:48:25.316Z,4924.00
2018-07-06T10:49:25.284Z,4564.00
2018-07-06T10:50:25.247Z,2240.00
2018-07-06T10:51:25.211Z,2248.00
2018-07-06T10:52:25.176Z,2720.00
2018-07-06T10:53:25.139Z,5352.00
2018-07-06T10:54:25.111Z,5568.00
2018-07-06T10:55:25.071Z,5388.00
2018-07-06T10:56:25.033Z,3036.00
2018-07-06T10:57:24.997Z,2776.00
2018-07-06T10:58:24.962Z,2800.00
2018-07-06T10:59:24.966Z,2972.00
2018-07-06T11:00:24.892Z,3340.00
2018-07-06T11:01:24.859Z,5472.00
2018-07-06T11:02:24.820Z,5324.00
2018-07-06T11:03:24.788Z,5212.00
2018-07-06T11:04:24.748Z,5068.00
2018-07-06T11:05:24.717Z,5052.00
2018-07-06T11:06:24.723Z,5364.00
2018-07-06T11:07:24.650Z,5752.00
2018-07-06T11:08:24.606Z,6104.00
2018-07-06T11:09:24.571Z,5808.00
2018-07-06T11:10:24.541Z,5772.00
2018-07-06T11:11:24.515Z,5848.00
2018-07-06T11:12:24.470Z,6380.00
2018-07-06T11:13:24.433Z,6196.00
2018-07-06T11:14:24.398Z,4756.00
2018-07-06T11:15:24.359Z,5376.00
2018-07-06T11:16:24.322Z,3384.00
2018-07-06T11:17:24.290Z,3280.00
2018-07-06T11:18:24.253Z,5636.00
2018-07-06T11:19:24.218Z,5660.00
2018-07-06T11:20:24.187Z,3820.00
2018-07-06T11:21:24.147Z,4316.00
2018-07-06T11:22:24.117Z,4120.00
2018-07-06T11:23:24.083Z,4296.00
2018-07-06T11:24:24.044Z,4292.00
2018-07-06T11:25:24.172Z,6364.00
2018-07-06T11:27:23.938Z,6700.00
2018-07-06T11:28:23.907Z,5184.00
2018-07-06T11:29:23.871Z,6620.00
2018-07-06T11:30:23.836Z,6372.00
2018-07-06T11:31:23.800Z,5668.00
2018-07-06T11:32:23.762Z,3408.00
2018-07-06T11:33:23.733Z,3700.00
2018-07-06T11:34:23.709Z,6344.00
2018-07-06T11:35:23.665Z,6572.00
2018-07-06T11:36:23.651Z,6772.00
2018-07-06T11:37:23.587Z,4680.00
2018-07-06T11:38:23.561Z,4380.00
2018-07-06T11:39:23.519Z,4860.00
2018-07-06T11:40:23.484Z,3652.00
2018-07-06T11:41:23.451Z,6556.00
2018-07-06T11:42:23.414Z,6632.00
2018-07-06T11:43:23.381Z,6584.00
2018-07-06T11:44:23.373Z,6236.00
2018-07-06T11:45:23.314Z,6104.00
2018-07-06T11:46:23.281Z,3476.00
2018-07-06T11:47:23.240Z,3356.00
2018-07-06T11:48:23.205Z,4472.00
2018-07-06T11:49:23.174Z,7128.00
2018-07-06T11:50:23.141Z,7672.00
2018-07-06T11:51:23.104Z,7324.00
2018-07-06T11:52:23.070Z,6952.00
2018-07-06T11:53:23.040Z,4404.00
2018-07-06T11:54:23.004Z,3212.00
2018-07-06T11:55:22.966Z,3384.00
2018-07-06T11:56:22.973Z,4004.00
2018-07-06T11:57:22.900Z,4808.00
2018-07-06T11:58:22.882Z,8176.00
2018-07-06T11:59:22.830Z,7992.00
2018-07-06T12:00:22.794Z,8364.00
2018-07-06T12:01:22.762Z,5184.00
2018-07-06T12:02:22.727Z,5428.00
2018-07-06T12:04:22.811Z,7704.00
2018-07-06T12:05:22.623Z,8328.00
2018-07-06T12:06:22.591Z,7736.00
2018-07-06T12:07:22.554Z,5468.00
2018-07-06T12:08:22.521Z,4928.00
2018-07-06T12:09:22.491Z,5436.00
2018-07-06T12:10:22.454Z,8824.00
2018-07-06T12:11:22.421Z,4896.00
2018-07-06T12:12:22.386Z,8992.00
2018-07-06T12:13:22.353Z,8936.00
2018-07-06T12:14:22.318Z,8272.00
2018-07-06T12:15:22.284Z,5716.00
2018-07-06T12:16:22.250Z,9152.00
2018-07-06T12:17:22.217Z,9016.00
2018-07-06T12:18:22.186Z,8656.00
2018-07-06T12:19:22.152Z,8500.00
2018-07-06T12:20:22.115Z,8892.00
2018-07-06T12:21:22.150Z,7420.00
2018-07-06T12:22:22.051Z,5328.00
2018-07-06T12:23:22.025Z,8180.00
2018-07-06T12:24:21.986Z,4140.00
2018-07-06T12:25:21.953Z,3996.00
2018-07-06T12:26:21.918Z,4228.00
2018-07-06T12:27:21.884Z,4680.00
2018-07-06T12:28:21.855Z,5184.00
2018-07-06T12:29:21.817Z,5084.00